• Join FlightAware (Why Join?)
  • Login
  • US Flag 
08:36PM EST


 

Airport Tracker/Info


-or-


 

Live Flight TrackerFlight Track Log ✈ EJA396 ✈ 06-May-2014 ✈ KSAN - KSNA

Flight Track Log - Related Links

Times and Time Zones

All times are in EDT time to prevent confusion due to time zone crossing. See the EJA396 flight status page for this flight to view local times or setup timezone preferences in your user account.

Time Position Orientation Groundspeed Altitude Reporting Facility
EDT Latitude Longitude Course Direction KTS MPH feet Rate Location/Type
03:19PM 32.7667 -117.2667 301° West 209 241 7,000  Level Southern California TRACON
03:20PM 32.8000 -117.3333 301° West 251 289 9,900 1,620 Climbing Southern California TRACON
03:21PM 32.8278 -117.3828 304° West 250 288 10,000  Climbing Los Angeles Center
03:22PM 32.8681 -117.4522 305° West 254 292 10,000  Level Los Angeles Center
03:23PM 32.9131 -117.5153 310° West 253 291 10,000  Level Los Angeles Center
03:24PM 32.9772 -117.5889 316° Northwest 262 302 10,000  Level Los Angeles Center
03:25PM 33.0300 -117.6522 315° West 267 307 10,000  Level Los Angeles Center
03:26PM 33.0811 -117.7150 314° West 267 307 10,000  Level Los Angeles Center
03:27PM 33.1347 -117.7792 315° West 267 307 10,000 -420 Level Los Angeles Center
03:28PM 33.1939 -117.8300 324° Northwest 266 306 9,200 -1,020 Descending Los Angeles Center
03:29PM 33.2678 -117.8864 327° Northwest 265 305 8,000 -720 Descending Los Angeles Center
03:30PM 33.3267 -117.9331 326° Northwest 259 298 7,800 -600 Descending Los Angeles Center
03:31PM 33.3836 -117.9800 325° Northwest 254 292 6,800 -900 Descending Los Angeles Center
03:32PM 33.4408 -118.0239 327° Northwest 250 288 6,000 -420 Descending Los Angeles Center
03:33PM 33.5139 -118.0361 352° North 262 302 6,000 -300 Level Los Angeles Center
03:34PM 33.5844 -118.0217 10° North 262 302 5,400 -600 Descending Los Angeles Center
03:35PM 33.6500 -118.0000 15° North 270 311 5,000 -1,260 Descending Southern California TRACON
03:36PM 33.7000 -117.9500 40° Northeast 244 281 3,300 -1,320 Descending Southern California TRACON
03:37PM 33.7500 -117.9000 40° Northeast 207 238 2,400 -900 Descending Southern California TRACON
03:38PM 33.7333 -117.8500 112° Southeast 147 169 1,500 -840 Descending Southern California TRACON
03:39PM 33.7000 -117.8500 180° South 117 135 800 -720 Descending Southern California TRACON